Time;durP1;ratioP1;P1;durP2;ratioP2;P2;SDS_P1;SDS_P2;PMS_P1;PMS_P2;Temp;Humidity;BMP_temperature;BMP_pressure;BME280_temperature;BME280_humidity;BME280_pressure;Samples;Min_cycle;Max_cycle;Signal;HPM_P1;HPM_P2
2021/09/09 00:00:47;;;;;;;12.70;9.05;;;17.20;99.90;;;;;;5060950;28;20056;-78
2021/09/09 00:03:12;;;;;;;11.40;9.10;;;17.10;99.90;;;;;;5045323;28;20037;-78
2021/09/09 00:05:38;;;;;;;17.23;10.32;;;17.10;99.90;;;;;;5062632;28;20128;-80
2021/09/09 00:08:04;;;;;;;15.40;9.93;;;17.00;99.90;;;;;;5035361;28;20127;-79
2021/09/09 00:10:30;;;;;;;16.67;9.70;;;17.00;99.90;;;;;;5042020;28;20328;-79
2021/09/09 00:12:56;;;;;;;14.27;10.15;;;16.90;99.90;;;;;;5042314;28;20055;-77
2021/09/09 00:15:21;;;;;;;18.10;10.07;;;16.90;99.90;;;;;;5059993;28;20043;-79
2021/09/09 00:17:47;;;;;;;14.75;10.13;;;16.90;99.90;;;;;;5047128;28;20563;-79
2021/09/09 00:20:14;;;;;;;16.90;10.05;;;16.90;99.90;;;;;;5060326;28;20086;-77
2021/09/09 00:22:40;;;;;;;11.32;8.95;;;16.70;99.90;;;;;;5029816;28;20052;-77
2021/09/09 00:25:07;;;;;;;13.13;9.50;;;16.80;99.90;;;;;;5037167;28;20514;-78
2021/09/09 00:27:33;;;;;;;19.60;9.27;;;16.80;99.90;;;;;;5027172;28;20048;-77
2021/09/09 00:29:59;;;;;;;14.65;9.07;;;16.80;99.90;;;;;;5064034;28;20033;-78
2021/09/09 00:32:25;;;;;;;12.13;9.02;;;16.80;99.90;;;;;;5061941;28;20049;-77
2021/09/09 00:34:52;;;;;;;13.98;9.45;;;16.90;99.90;;;;;;5043388;28;20056;-79
2021/09/09 00:37:18;;;;;;;11.70;8.50;;;16.80;99.90;;;;;;5049515;28;20099;-77
2021/09/09 00:39:44;;;;;;;14.70;8.73;;;16.80;99.90;;;;;;5045704;28;20040;-78
2021/09/09 00:42:09;;;;;;;12.68;8.70;;;16.90;99.90;;;;;;5039257;28;20476;-79
2021/09/09 00:44:35;;;;;;;12.10;8.77;;;16.80;99.90;;;;;;5061257;28;20183;-79
2021/09/09 00:47:04;;;;;;;16.38;8.88;;;16.80;99.90;;;;;;5060460;28;20032;-77
2021/09/09 00:49:32;;;;;;;13.30;9.23;;;16.80;99.90;;;;;;5043701;28;20495;-78
2021/09/09 00:51:58;;;;;;;16.02;8.70;;;16.80;99.90;;;;;;5060807;28;20041;-77
2021/09/09 00:54:24;;;;;;;13.60;8.90;;;16.80;99.90;;;;;;5065379;28;20369;-76
2021/09/09 00:56:51;;;;;;;12.00;8.63;;;16.70;99.90;;;;;;5059948;28;20053;-78
2021/09/09 00:59:20;;;;;;;12.75;8.90;;;16.70;99.90;;;;;;5064980;28;20044;-78
2021/09/09 01:01:46;;;;;;;16.23;9.63;;;16.60;99.90;;;;;;5060058;28;21909;-80
2021/09/09 01:04:13;;;;;;;15.32;9.18;;;16.60;99.90;;;;;;5040744;28;20056;-78
2021/09/09 01:06:39;;;;;;;13.93;8.77;;;16.60;99.90;;;;;;5059622;28;20037;-79
2021/09/09 01:09:05;;;;;;;12.80;8.55;;;16.60;99.90;;;;;;5058626;28;20078;-79
2021/09/09 01:11:30;;;;;;;17.98;9.63;;;16.50;99.90;;;;;;5046200;28;20035;-79
2021/09/09 01:14:14;;;;;;;11.40;9.30;;;16.50;99.90;;;;;;5047331;28;20041;-79
2021/09/09 01:16:41;;;;;;;15.05;9.65;;;16.50;99.90;;;;;;5040676;28;20067;-78
2021/09/09 01:19:09;;;;;;;14.52;9.50;;;16.50;99.90;;;;;;5066532;28;20045;-78
2021/09/09 01:21:35;;;;;;;14.38;9.35;;;16.50;99.90;;;;;;5043223;28;20060;-78
2021/09/09 01:24:02;;;;;;;14.80;9.48;;;16.50;99.90;;;;;;5084079;28;20029;-77
2021/09/09 01:26:30;;;;;;;13.10;9.50;;;16.50;99.90;;;;;;5041359;28;20056;-78
2021/09/09 01:28:57;;;;;;;11.93;9.50;;;16.50;99.90;;;;;;5064765;28;20360;-78
2021/09/09 01:31:23;;;;;;;15.70;10.23;;;16.50;99.90;;;;;;5036338;28;20484;-78
2021/09/09 01:33:56;;;;;;;15.77;9.70;;;16.50;99.90;;;;;;5046330;28;20068;-77
2021/09/09 01:36:23;;;;;;;14.55;9.85;;;16.50;99.90;;;;;;5056491;28;20368;-78
2021/09/09 01:38:49;;;;;;;13.43;9.60;;;16.50;99.90;;;;;;5041863;28;20044;-77
2021/09/09 01:41:15;;;;;;;18.30;10.32;;;16.50;99.90;;;;;;5066399;28;20049;-77
2021/09/09 01:43:40;;;;;;;16.40;10.20;;;16.50;99.90;;;;;;5062396;28;20044;-79
2021/09/09 01:46:06;;;;;;;15.93;10.00;;;16.50;99.90;;;;;;5038560;28;20123;-79
2021/09/09 01:48:32;;;;;;;17.20;10.45;;;16.60;99.90;;;;;;5064680;28;20072;-77
2021/09/09 01:50:58;;;;;;;16.30;10.05;;;16.50;99.90;;;;;;5057520;28;20040;-77
2021/09/09 01:53:24;;;;;;;16.40;10.27;;;16.50;99.90;;;;;;5052021;28;20040;-77
2021/09/09 01:55:50;;;;;;;13.60;9.88;;;16.50;99.90;;;;;;5035814;28;20075;-78
2021/09/09 01:58:15;;;;;;;17.70;10.32;;;16.40;99.90;;;;;;5060828;28;20136;-77
2021/09/09 02:00:41;;;;;;;17.35;10.15;;;16.40;99.90;;;;;;5045103;28;20068;-80
2021/09/09 02:03:07;;;;;;;13.63;10.27;;;16.40;99.90;;;;;;5046651;28;20163;-76
2021/09/09 02:05:33;;;;;;;17.88;10.63;;;16.40;99.90;;;;;;5066408;28;20037;-79
2021/09/09 02:08:00;;;;;;;14.63;10.38;;;16.30;99.90;;;;;;5045344;28;20034;-78
2021/09/09 02:10:25;;;;;;;18.13;10.82;;;16.30;99.90;;;;;;5044225;28;20120;-79
2021/09/09 02:12:51;;;;;;;16.80;11.43;;;16.40;99.90;;;;;;5041113;28;20179;-80
2021/09/09 02:15:17;;;;;;;17.17;11.43;;;16.40;99.90;;;;;;5065148;28;20473;-79
2021/09/09 02:17:43;;;;;;;20.23;10.75;;;16.40;99.90;;;;;;5040240;28;20056;-78
2021/09/09 02:20:09;;;;;;;16.10;10.98;;;16.40;99.90;;;;;;5042991;28;20769;-78
2021/09/09 02:22:35;;;;;;;16.92;11.00;;;16.30;99.90;;;;;;5058346;28;20806;-79
2021/09/09 02:25:01;;;;;;;18.13;11.50;;;16.30;99.90;;;;;;5053826;28;20048;-77
2021/09/09 02:27:28;;;;;;;23.40;11.73;;;16.30;99.90;;;;;;5068242;28;20101;-77
2021/09/09 02:29:53;;;;;;;19.42;11.10;;;16.20;99.90;;;;;;5051640;28;20044;-77
2021/09/09 02:32:19;;;;;;;19.70;12.25;;;16.20;99.90;;;;;;5044961;28;20059;-77
2021/09/09 02:34:45;;;;;;;16.25;11.82;;;16.20;99.90;;;;;;5053942;28;20445;-78
2021/09/09 02:37:11;;;;;;;21.05;12.13;;;16.20;99.90;;;;;;5078109;28;20040;-79
2021/09/09 02:39:40;;;;;;;20.13;11.65;;;16.10;99.90;;;;;;5066384;28;20123;-77
2021/09/09 02:42:06;;;;;;;17.83;12.85;;;16.10;99.90;;;;;;5063110;28;20043;-78
2021/09/09 02:44:32;;;;;;;19.90;12.15;;;16.10;99.90;;;;;;5072569;28;20147;-78
2021/09/09 02:46:57;;;;;;;19.65;12.65;;;16.10;99.90;;;;;;5071212;28;20395;-78
2021/09/09 02:49:23;;;;;;;14.48;11.88;;;16.00;99.90;;;;;;5068973;28;20105;-79
2021/09/09 02:51:48;;;;;;;21.52;11.93;;;16.00;99.90;;;;;;5063232;28;20043;-78
2021/09/09 02:54:14;;;;;;;22.02;12.77;;;15.90;99.90;;;;;;5059747;28;20061;-77
2021/09/09 02:56:40;;;;;;;21.77;14.00;;;15.90;99.90;;;;;;5049892;28;20491;-79
2021/09/09 02:59:06;;;;;;;22.85;13.15;;;15.80;99.90;;;;;;5082592;28;20577;-77
2021/09/09 03:01:31;;;;;;;18.65;13.23;;;15.80;99.90;;;;;;5067714;28;20036;-78
2021/09/09 03:03:57;;;;;;;17.20;12.45;;;15.80;99.90;;;;;;5063702;28;20155;-77
2021/09/09 03:06:22;;;;;;;23.85;13.52;;;15.80;99.90;;;;;;5061273;28;20417;-79
2021/09/09 03:08:49;;;;;;;24.45;13.52;;;15.70;99.90;;;;;;5045827;28;20121;-77
2021/09/09 03:11:15;;;;;;;18.38;12.70;;;15.70;99.90;;;;;;5048287;28;20043;-79
2021/09/09 03:13:40;;;;;;;23.92;12.90;;;15.70;99.90;;;;;;5061153;28;20032;-79
2021/09/09 03:16:06;;;;;;;17.50;13.45;;;15.70;99.90;;;;;;5054909;28;20064;-78
2021/09/09 03:18:31;;;;;;;21.10;13.25;;;15.70;99.90;;;;;;5068600;28;20043;-79
2021/09/09 03:20:58;;;;;;;21.33;12.75;;;15.60;99.90;;;;;;5066014;28;20076;-78
2021/09/09 03:23:23;;;;;;;18.70;13.40;;;15.50;99.90;;;;;;5073082;28;20132;-79
2021/09/09 03:25:49;;;;;;;20.08;13.98;;;15.60;99.90;;;;;;5068715;28;20132;-77
2021/09/09 03:28:15;;;;;;;24.80;14.55;;;15.40;99.90;;;;;;5063450;28;20400;-79
2021/09/09 03:30:40;;;;;;;21.27;13.65;;;15.50;99.90;;;;;;5080720;28;20349;-78
2021/09/09 03:33:06;;;;;;;18.90;14.38;;;15.50;99.90;;;;;;5084278;28;20490;-78
2021/09/09 03:35:32;;;;;;;22.70;15.30;;;15.40;99.90;;;;;;5071776;28;20474;-78
2021/09/09 03:37:57;;;;;;;22.63;14.95;;;15.40;99.90;;;;;;5063312;28;20101;-78
2021/09/09 03:40:23;;;;;;;22.23;15.20;;;15.40;99.90;;;;;;5073736;28;20035;-78
2021/09/09 03:42:49;;;;;;;23.35;16.08;;;15.30;99.90;;;;;;5047651;28;20093;-77
2021/09/09 03:45:14;;;;;;;29.40;17.05;;;15.30;99.90;;;;;;5070911;28;20051;-79
2021/09/09 03:47:40;;;;;;;27.95;18.17;;;15.40;99.90;;;;;;5042909;28;20048;-79
2021/09/09 03:50:06;;;;;;;27.45;17.63;;;15.30;99.90;;;;;;5042656;28;20036;-79
2021/09/09 03:52:32;;;;;;;31.42;18.30;;;15.30;99.90;;;;;;5062098;28;20087;-79
2021/09/09 03:54:58;;;;;;;33.25;18.17;;;15.20;99.90;;;;;;5071069;28;20068;-79
2021/09/09 03:57:24;;;;;;;28.35;17.95;;;15.30;99.90;;;;;;5045866;28;20108;-79
2021/09/09 03:59:50;;;;;;;25.55;18.20;;;15.30;99.90;;;;;;5064777;28;20178;-79
2021/09/09 04:02:16;;;;;;;26.58;17.55;;;15.20;99.90;;;;;;5046895;28;20532;-77
2021/09/09 04:04:43;;;;;;;26.90;17.67;;;15.20;99.90;;;;;;5068697;28;20395;-79
2021/09/09 04:07:08;;;;;;;25.88;18.15;;;15.20;99.90;;;;;;5049810;28;20044;-79
2021/09/09 04:09:36;;;;;;;25.92;17.42;;;15.20;99.90;;;;;;5062921;28;20103;-77
2021/09/09 04:12:04;;;;;;;24.73;17.48;;;15.10;99.90;;;;;;5049961;28;20034;-79
2021/09/09 04:14:30;;;;;;;26.95;17.52;;;15.10;99.90;;;;;;5065694;28;20235;-77
2021/09/09 04:16:55;;;;;;;29.33;16.83;;;15.10;99.90;;;;;;5056164;28;20203;-79
2021/09/09 04:19:23;;;;;;;27.75;17.95;;;15.00;99.90;;;;;;5050831;28;20207;-77
2021/09/09 04:21:50;;;;;;;25.02;17.05;;;15.10;99.90;;;;;;5045237;28;20173;-79
2021/09/09 04:24:16;;;;;;;27.00;17.15;;;15.10;99.90;;;;;;5066379;28;20104;-78
2021/09/09 04:26:43;;;;;;;23.88;16.40;;;15.10;99.90;;;;;;5043416;28;20506;-77
2021/09/09 04:29:10;;;;;;;25.60;16.83;;;15.10;99.90;;;;;;5049883;28;20071;-77
2021/09/09 04:31:35;;;;;;;26.65;16.55;;;15.10;99.90;;;;;;5064324;28;20036;-79
2021/09/09 04:34:01;;;;;;;25.80;16.48;;;15.00;99.90;;;;;;5067498;28;20040;-80
2021/09/09 04:36:27;;;;;;;22.83;16.33;;;15.00;99.90;;;;;;5027548;28;20039;-78
2021/09/09 04:38:53;;;;;;;28.23;17.13;;;15.00;99.90;;;;;;5064524;28;20123;-79
2021/09/09 04:41:18;;;;;;;23.23;16.27;;;15.00;99.90;;;;;;5067037;28;20067;-79
2021/09/09 04:43:45;;;;;;;29.35;16.38;;;15.00;99.90;;;;;;5052524;28;20039;-77
2021/09/09 04:46:11;;;;;;;27.30;16.75;;;15.10;99.90;;;;;;5046962;28;20056;-79
2021/09/09 04:48:37;;;;;;;21.83;15.93;;;15.00;99.90;;;;;;5059472;28;20024;-78
2021/09/09 04:51:03;;;;;;;22.13;16.33;;;15.00;99.90;;;;;;5043730;28;20048;-77
2021/09/09 04:53:28;;;;;;;25.13;16.95;;;15.00;99.90;;;;;;5060781;28;20032;-78
2021/09/09 04:55:55;;;;;;;25.15;16.25;;;15.00;99.90;;;;;;5051965;28;20456;-78
2021/09/09 04:58:21;;;;;;;23.92;17.23;;;14.90;99.90;;;;;;5039763;28;20044;-78
2021/09/09 05:00:46;;;;;;;27.73;17.30;;;15.00;99.90;;;;;;5045546;28;20028;-76
2021/09/09 05:03:12;;;;;;;25.48;17.23;;;14.90;99.90;;;;;;5043764;28;20035;-76
2021/09/09 05:05:38;;;;;;;24.52;16.90;;;14.90;99.90;;;;;;5054447;28;20036;-79
2021/09/09 05:08:04;;;;;;;23.33;16.52;;;14.90;99.90;;;;;;5059311;28;20035;-78
2021/09/09 05:10:30;;;;;;;27.08;17.27;;;14.90;99.90;;;;;;5048968;28;20039;-76
2021/09/09 05:12:55;;;;;;;28.52;17.88;;;15.00;99.90;;;;;;5062227;28;20062;-79
2021/09/09 05:15:21;;;;;;;26.10;17.13;;;14.90;99.90;;;;;;5053918;28;20047;-78
2021/09/09 05:17:47;;;;;;;24.98;17.70;;;14.90;99.90;;;;;;5045401;28;20040;-78
2021/09/09 05:20:13;;;;;;;25.52;18.05;;;14.90;99.90;;;;;;5044690;28;20044;-79
2021/09/09 05:22:38;;;;;;;26.63;18.63;;;14.90;99.90;;;;;;5071254;28;20044;-77
2021/09/09 05:25:04;;;;;;;21.60;13.00;;;15.00;99.90;;;;;;5043741;28;20084;-79
2021/09/09 05:27:30;;;;;;;24.67;14.52;;;15.00;99.90;;;;;;5063468;28;20090;-79
2021/09/09 05:29:56;;;;;;;24.45;15.38;;;15.60;99.90;;;;;;5046044;28;20048;-77
2021/09/09 05:32:22;;;;;;;26.75;14.60;;;15.90;99.90;;;;;;5067299;28;20168;-80
2021/09/09 05:34:47;;;;;;;24.40;14.75;;;16.20;99.90;;;;;;5058874;28;21010;-80
2021/09/09 05:37:13;;;;;;;21.55;14.90;;;16.30;99.90;;;;;;5067400;28;20039;-77
2021/09/09 05:39:39;;;;;;;24.23;16.00;;;16.60;99.90;;;;;;5071183;28;20043;-78
2021/09/09 05:42:04;;;;;;;20.02;15.70;;;16.60;99.90;;;;;;5067875;28;20036;-78
2021/09/09 05:44:30;;;;;;;23.98;16.98;;;16.60;99.90;;;;;;5055880;28;20040;-81
2021/09/09 05:46:56;;;;;;;25.42;17.50;;;16.50;99.90;;;;;;5057127;28;20436;-76
2021/09/09 05:49:21;;;;;;;26.08;18.10;;;16.40;99.90;;;;;;5047110;28;20067;-81
2021/09/09 05:51:47;;;;;;;20.73;16.23;;;16.40;99.90;;;;;;5065731;28;20036;-76
2021/09/09 05:54:13;;;;;;;27.00;16.55;;;16.40;99.90;;;;;;5056231;28;20055;-79
2021/09/09 05:56:38;;;;;;;25.25;15.48;;;16.60;99.90;;;;;;5070092;28;20325;-80
2021/09/09 05:59:04;;;;;;;22.80;15.63;;;16.50;99.90;;;;;;5053605;28;20041;-81
2021/09/09 06:01:30;;;;;;;23.20;15.23;;;16.70;99.90;;;;;;5054423;28;20460;-79
2021/09/09 06:03:57;;;;;;;26.40;15.10;;;16.60;99.90;;;;;;5054320;28;20032;-77
2021/09/09 06:06:25;;;;;;;22.10;14.38;;;16.60;99.90;;;;;;5067311;28;20087;-78
2021/09/09 06:08:51;;;;;;;20.33;15.68;;;16.70;99.90;;;;;;5062079;28;20036;-76
2021/09/09 06:11:16;;;;;;;23.38;17.23;;;16.70;99.90;;;;;;5056263;28;20040;-75
2021/09/09 06:13:42;;;;;;;25.73;16.95;;;16.60;99.90;;;;;;5069141;28;20130;-77
2021/09/09 06:16:08;;;;;;;22.40;15.63;;;16.60;99.90;;;;;;5056942;28;20043;-78
2021/09/09 06:18:36;;;;;;;28.13;17.35;;;16.70;99.90;;;;;;5043752;28;20056;-77
2021/09/09 06:21:02;;;;;;;27.52;15.40;;;16.60;99.90;;;;;;5068934;28;20389;-79
2021/09/09 06:23:29;;;;;;;21.00;15.00;;;16.80;99.90;;;;;;5073124;28;20478;-77
2021/09/09 06:25:55;;;;;;;24.30;16.80;;;16.70;99.90;;;;;;5042694;28;20063;-75
2021/09/09 06:28:20;;;;;;;23.27;15.90;;;16.80;99.90;;;;;;5043993;28;20041;-80
2021/09/09 06:30:46;;;;;;;20.58;15.43;;;16.80;99.90;;;;;;5047363;28;20396;-80
2021/09/09 06:33:12;;;;;;;20.83;16.40;;;16.80;99.90;;;;;;5047185;28;20072;-79
2021/09/09 06:35:38;;;;;;;25.08;17.10;;;16.80;99.90;;;;;;5049513;28;20456;-76
2021/09/09 06:38:03;;;;;;;30.05;16.52;;;16.90;99.90;;;;;;5050014;28;20048;-80
2021/09/09 06:40:29;;;;;;;23.40;14.15;;;16.90;99.90;;;;;;5065230;28;20044;-79
2021/09/09 06:42:55;;;;;;;21.77;16.80;;;16.90;99.90;;;;;;5061089;28;20123;-81
2021/09/09 06:45:21;;;;;;;23.38;16.67;;;17.10;99.90;;;;;;5065063;28;20052;-80
2021/09/09 06:47:46;;;;;;;23.80;15.93;;;17.10;99.90;;;;;;5063342;28;20064;-84
2021/09/09 06:50:12;;;;;;;19.77;15.23;;;17.10;99.90;;;;;;5062770;28;20044;-77
2021/09/09 06:52:38;;;;;;;23.55;15.43;;;17.20;99.90;;;;;;5040719;28;20504;-83
2021/09/09 06:55:04;;;;;;;24.92;17.23;;;17.20;99.90;;;;;;5066471;28;20124;-76
2021/09/09 06:57:30;;;;;;;22.48;14.75;;;17.20;99.90;;;;;;5061125;28;20052;-80
2021/09/09 06:59:56;;;;;;;20.55;14.00;;;17.30;99.90;;;;;;5062990;28;20102;-83
2021/09/09 07:02:21;;;;;;;22.15;15.05;;;17.60;99.90;;;;;;5066439;28;20139;-82
2021/09/09 07:04:47;;;;;;;22.23;15.05;;;17.50;99.90;;;;;;5063734;28;20457;-83
2021/09/09 07:07:12;;;;;;;19.98;14.40;;;17.50;99.90;;;;;;5044773;28;20549;-80
2021/09/09 07:09:38;;;;;;;24.55;17.13;;;17.60;99.90;;;;;;5062199;28;20037;-79
2021/09/09 07:12:04;;;;;;;22.83;15.50;;;17.70;99.90;;;;;;5051450;28;20056;-80
2021/09/09 07:14:30;;;;;;;26.48;16.90;;;17.80;99.90;;;;;;5054355;28;22311;-81
2021/09/09 07:16:55;;;;;;;22.13;16.40;;;17.80;99.90;;;;;;5065251;28;20495;-80
2021/09/09 07:19:21;;;;;;;28.60;16.98;;;17.90;99.90;;;;;;5064112;28;20052;-78
2021/09/09 07:21:50;;;;;;;27.80;17.27;;;17.90;99.90;;;;;;5070007;28;20056;-76
2021/09/09 07:24:17;;;;;;;25.15;16.45;;;17.80;99.90;;;;;;5051887;28;20111;-80
2021/09/09 07:26:48;;;;;;;30.02;18.00;;;17.90;99.90;;;;;;5038094;28;20131;-78
2021/09/09 07:29:14;;;;;;;19.55;15.45;;;17.90;99.90;;;;;;5023537;28;20041;-81
2021/09/09 07:31:44;;;;;;;24.60;16.70;;;18.10;99.90;;;;;;5033189;28;20443;-80
2021/09/09 07:34:10;;;;;;;22.23;16.35;;;18.10;99.90;;;;;;5031906;28;20044;-80
2021/09/09 07:36:37;;;;;;;25.00;16.45;;;18.10;99.90;;;;;;5045338;28;20033;-82
2021/09/09 07:39:03;;;;;;;28.15;17.38;;;18.20;99.90;;;;;;5049705;28;20476;-84
2021/09/09 07:41:29;;;;;;;25.95;17.45;;;18.20;99.90;;;;;;5049913;28;20431;-80
2021/09/09 07:43:54;;;;;;;24.05;14.82;;;18.40;99.90;;;;;;5049618;28;20049;-81
2021/09/09 07:46:20;;;;;;;23.80;17.50;;;18.40;99.90;;;;;;5047805;28;20045;-82
2021/09/09 07:48:46;;;;;;;23.80;17.17;;;18.50;99.90;;;;;;5043520;28;20083;-78
2021/09/09 07:51:12;;;;;;;23.13;17.90;;;18.50;99.90;;;;;;5029003;28;20407;-79
2021/09/09 07:53:37;;;;;;;23.98;17.33;;;18.50;99.90;;;;;;5041059;28;20033;-84
2021/09/09 07:56:04;;;;;;;25.30;16.98;;;18.60;99.90;;;;;;5018544;28;20493;-80
2021/09/09 07:58:30;;;;;;;21.20;13.85;;;18.60;99.90;;;;;;5022554;28;20087;-81
2021/09/09 08:00:56;;;;;;;26.65;14.55;;;18.70;99.90;;;;;;5019987;28;20049;-79
2021/09/09 08:03:21;;;;;;;17.90;12.82;;;18.90;99.90;;;;;;5034232;28;20045;-79
2021/09/09 08:05:47;;;;;;;21.65;15.45;;;19.00;99.90;;;;;;5035043;28;20536;-78
2021/09/09 08:08:13;;;;;;;22.23;16.15;;;19.10;99.90;;;;;;5061857;28;20041;-83
2021/09/09 08:10:38;;;;;;;22.00;16.63;;;19.10;99.90;;;;;;5044175;28;20050;-82
2021/09/09 08:13:04;;;;;;;20.13;16.30;;;19.20;99.90;;;;;;5023767;28;20048;-80
2021/09/09 08:15:30;;;;;;;28.58;16.38;;;19.30;99.90;;;;;;5029560;28;20152;-84
2021/09/09 08:17:56;;;;;;;25.75;18.35;;;19.40;99.90;;;;;;5029297;28;20412;-84
2021/09/09 08:20:21;;;;;;;22.60;15.52;;;19.30;99.90;;;;;;5027965;28;20077;-78
2021/09/09 08:22:47;;;;;;;23.60;16.20;;;19.40;99.90;;;;;;5047851;28;20509;-80
2021/09/09 08:25:13;;;;;;;21.35;15.10;;;19.50;99.90;;;;;;5034034;28;20052;-78
2021/09/09 08:27:39;;;;;;;23.77;17.65;;;19.50;99.90;;;;;;5055296;28;20116;-83
2021/09/09 08:30:06;;;;;;;54.50;16.73;;;19.50;99.90;;;;;;5061989;28;20067;-84
2021/09/09 08:32:32;;;;;;;24.77;16.98;;;19.60;99.90;;;;;;5050528;28;20414;-81
2021/09/09 08:34:58;;;;;;;23.95;16.60;;;19.50;99.90;;;;;;5048198;28;20056;-80
2021/09/09 08:37:25;;;;;;;23.15;17.00;;;19.70;99.90;;;;;;5060380;28;20199;-82
2021/09/09 08:39:51;;;;;;;23.42;16.90;;;19.70;99.90;;;;;;5046613;28;20051;-82
2021/09/09 08:42:19;;;;;;;24.92;16.77;;;19.80;99.90;;;;;;5061772;28;20032;-81
2021/09/09 08:44:46;;;;;;;22.55;16.00;;;19.90;99.90;;;;;;5068583;28;20397;-82
2021/09/09 08:47:11;;;;;;;22.85;16.55;;;19.90;99.90;;;;;;5068575;28;20044;-79
2021/09/09 08:49:37;;;;;;;21.90;15.95;;;19.90;99.90;;;;;;5063399;28;20125;-81
2021/09/09 08:52:04;;;;;;;22.85;16.58;;;20.00;99.90;;;;;;5069344;28;20033;-82
2021/09/09 08:54:31;;;;;;;26.63;15.50;;;20.10;99.90;;;;;;5052694;28;20052;-79
2021/09/09 08:56:57;;;;;;;17.02;12.45;;;20.20;99.90;;;;;;5072811;28;20118;-78
2021/09/09 08:59:23;;;;;;;24.52;16.77;;;20.20;99.90;;;;;;5050774;28;20186;-81
2021/09/09 09:02:03;;;;;;;22.98;15.57;;;20.30;99.90;;;;;;5042509;28;20048;-81
2021/09/09 09:04:30;;;;;;;20.65;15.50;;;20.50;99.90;;;;;;5066754;28;20071;-81
2021/09/09 09:06:56;;;;;;;22.95;15.07;;;20.70;99.90;;;;;;5055464;28;20047;-80
2021/09/09 09:09:24;;;;;;;19.55;15.05;;;20.70;99.90;;;;;;5057648;28;20032;-82
2021/09/09 09:11:51;;;;;;;23.88;15.60;;;20.80;99.90;;;;;;5060969;28;20056;-79
2021/09/09 09:14:20;;;;;;;22.13;15.18;;;20.90;99.90;;;;;;5043940;28;20479;-79
2021/09/09 09:17:12;;;;;;;23.83;15.10;;;20.90;99.90;;;;;;5059739;28;20040;-78
2021/09/09 09:19:39;;;;;;;20.88;15.05;;;21.00;99.90;;;;;;5050249;28;20502;-83
2021/09/09 09:22:08;;;;;;;20.25;15.35;;;21.10;99.90;;;;;;5061750;28;20020;-77
2021/09/09 09:24:47;;;;;;;18.48;13.85;;;21.10;99.90;;;;;;5070749;28;20045;-81
2021/09/09 09:27:14;;;;;;;17.30;13.48;;;21.20;99.90;;;;;;5063177;28;20045;-80
2021/09/09 09:29:42;;;;;;;17.77;14.77;;;21.40;99.90;;;;;;5050109;28;20045;-79
2021/09/09 09:32:15;;;;;;;24.83;14.65;;;21.50;99.90;;;;;;5054899;28;20132;-80
2021/09/09 09:34:42;;;;;;;22.58;14.90;;;21.50;99.90;;;;;;5037889;28;20059;-80
2021/09/09 09:37:08;;;;;;;21.60;14.15;;;21.70;99.90;;;;;;5065432;28;20033;-79
2021/09/09 09:39:34;;;;;;;19.85;14.10;;;21.70;99.90;;;;;;5056733;28;20517;-82
2021/09/09 09:42:05;;;;;;;20.50;13.00;;;21.70;99.90;;;;;;5063158;28;20135;-79
2021/09/09 09:44:38;;;;;;;18.20;12.90;;;21.80;99.90;;;;;;5065306;28;20519;-79
2021/09/09 09:47:13;;;;;;;20.40;12.68;;;22.00;99.90;;;;;;5060653;28;20055;-80
2021/09/09 09:49:42;;;;;;;16.92;13.50;;;22.10;99.90;;;;;;5049315;28;20044;-81
2021/09/09 09:52:09;;;;;;;26.50;13.48;;;22.30;99.90;;;;;;5067872;28;20040;-83
2021/09/09 09:54:35;;;;;;;16.00;12.93;;;22.40;99.90;;;;;;5066261;28;20056;-80
2021/09/09 09:57:02;;;;;;;18.45;13.27;;;22.50;99.90;;;;;;5037403;28;20429;-81
2021/09/09 09:59:28;;;;;;;19.55;12.98;;;22.60;99.90;;;;;;5066685;28;20080;-81
2021/09/09 10:01:53;;;;;;;20.58;12.88;;;22.70;99.90;;;;;;5066613;28;20056;-80
2021/09/09 10:04:21;;;;;;;14.85;11.77;;;22.90;99.90;;;;;;5065853;28;20049;-80
2021/09/09 10:06:48;;;;;;;17.08;11.50;;;22.90;99.90;;;;;;5064576;28;20210;-79
2021/09/09 10:09:15;;;;;;;17.15;11.40;;;23.20;99.90;;;;;;5059553;28;20315;-81
2021/09/09 10:11:41;;;;;;;17.33;11.90;;;23.40;99.90;;;;;;5053792;28;20052;-82
2021/09/09 10:14:08;;;;;;;15.73;10.90;;;23.50;99.90;;;;;;5053235;28;20047;-77
2021/09/09 10:16:41;;;;;;;14.75;10.93;;;23.70;99.90;;;;;;5055221;28;20116;-81
2021/09/09 10:19:32;;;;;;;13.23;10.85;;;23.80;99.90;;;;;;5048732;28;20056;-81
2021/09/09 10:22:12;;;;;;;17.38;10.70;;;24.10;99.90;;;;;;5049717;28;20067;-80
2021/09/09 10:25:03;;;;;;;12.20;9.90;;;24.30;99.90;;;;;;5052726;28;20041;-80
2021/09/09 10:27:34;;;;;;;13.40;10.15;;;24.50;99.90;;;;;;5039614;28;20146;-82
2021/09/09 10:30:04;;;;;;;12.23;9.75;;;24.70;99.90;;;;;;5048179;28;20113;-81
2021/09/09 10:32:33;;;;;;;16.30;9.90;;;24.90;99.90;;;;;;5062874;28;20049;-81
2021/09/09 10:35:17;;;;;;;13.90;10.23;;;25.00;99.90;;;;;;5045424;28;20041;-80
2021/09/09 10:37:57;;;;;;;12.40;9.32;;;25.10;99.90;;;;;;5043201;28;20076;-77
2021/09/09 10:40:31;;;;;;;15.55;8.90;;;25.30;99.90;;;;;;5059250;28;20095;-79
2021/09/09 10:43:10;;;;;;;;;;;25.50;99.90;;;;;;5041576;28;20102;-76
2021/09/09 10:45:36;;;;;;;12.30;8.88;;;25.60;99.90;;;;;;5063789;28;19943;-77
2021/09/09 10:48:03;;;;;;;10.00;8.55;;;25.60;99.90;;;;;;5059827;28;20059;-80
2021/09/09 10:50:29;;;;;;;13.45;9.00;;;25.90;99.90;;;;;;5044681;28;20193;-80
2021/09/09 10:53:12;;;;;;;15.90;9.02;;;26.00;99.90;;;;;;5066014;28;20515;-79
2021/09/09 10:55:47;;;;;;;14.88;9.18;;;26.20;99.90;;;;;;5059787;28;20368;-78
2021/09/09 10:58:19;;;;;;;10.63;8.10;;;26.40;99.90;;;;;;5057704;28;20052;-79
2021/09/09 11:00:54;;;;;;;15.35;9.40;;;26.60;99.90;;;;;;5057120;28;20049;-81
2021/09/09 11:03:40;;;;;;;11.27;9.02;;;26.70;99.90;;;;;;5058537;28;20048;-81
2021/09/09 11:06:25;;;;;;;13.80;9.20;;;26.70;99.90;;;;;;5037865;28;20059;-79
2021/09/09 11:08:56;;;;;;;10.82;8.30;;;26.70;99.90;;;;;;5055542;28;20760;-76
2021/09/09 11:11:29;;;;;;;15.52;8.50;;;26.90;99.90;;;;;;5060561;28;20574;-80
2021/09/09 11:14:00;;;;;;;11.83;8.93;;;27.00;99.90;;;;;;5035447;28;20564;-77
2021/09/09 11:16:28;;;;;;;11.13;8.60;;;27.10;99.90;;;;;;5057858;28;20045;-81
2021/09/09 11:18:54;;;;;;;10.48;7.88;;;27.20;99.90;;;;;;5054944;28;20057;-83
2021/09/09 11:21:25;;;;;;;11.68;8.00;;;27.30;99.90;;;;;;5057590;28;20052;-82
2021/09/09 11:23:58;;;;;;;10.18;8.30;;;27.50;99.90;;;;;;5057366;28;20049;-81
2021/09/09 11:26:24;;;;;;;16.50;8.45;;;27.70;99.90;;;;;;5058550;28;20575;-80
2021/09/09 11:28:54;;;;;;;9.52;7.57;;;27.70;99.90;;;;;;5047376;28;20510;-82
2021/09/09 11:31:28;;;;;;;9.55;7.95;;;27.70;99.90;;;;;;5044736;28;20041;-83
2021/09/09 11:33:57;;;;;;;10.40;7.90;;;27.80;99.90;;;;;;5067808;28;20476;-86
2021/09/09 11:36:27;;;;;;;11.73;8.18;;;27.70;99.90;;;;;;5053282;28;20543;-84
2021/09/09 11:38:55;;;;;;;12.90;7.72;;;28.10;99.90;;;;;;5073061;28;20063;-85
2021/09/09 11:41:22;;;;;;;9.95;7.55;;;28.30;99.90;;;;;;5052896;28;20064;-81
2021/09/09 11:44:01;;;;;;;10.65;8.65;;;28.40;99.90;;;;;;5054140;28;20470;-84
2021/09/09 11:46:32;;;;;;;10.15;8.20;;;28.40;99.60;;;;;;5049571;28;20075;-85
2021/09/09 11:49:09;;;;;;;9.85;8.13;;;28.50;99.90;;;;;;5041849;28;20032;-81
2021/09/09 11:51:44;;;;;;;10.40;8.23;;;28.70;99.90;;;;;;5052666;28;20504;-81
2021/09/09 11:54:16;;;;;;;9.25;7.78;;;28.80;99.90;;;;;;5035319;28;20064;-83
2021/09/09 11:56:41;;;;;;;12.65;7.60;;;28.90;99.40;;;;;;5039830;28;20037;-84
2021/09/09 11:59:18;;;;;;;14.02;8.13;;;28.90;99.70;;;;;;5053012;28;20056;-82
2021/09/09 12:01:46;;;;;;;9.43;7.72;;;28.70;97.70;;;;;;5051578;28;20045;-82
2021/09/09 12:04:13;;;;;;;9.55;7.60;;;28.90;97.20;;;;;;5061020;28;20078;-82
2021/09/09 12:06:39;;;;;;;12.40;7.15;;;29.10;99.10;;;;;;5065307;28;20424;-87
2021/09/09 12:09:05;;;;;;;9.65;7.55;;;29.40;99.30;;;;;;5043842;28;20045;-82
2021/09/09 12:11:33;;;;;;;11.68;7.30;;;29.20;98.30;;;;;;5060865;28;20067;-84
2021/09/09 12:14:15;;;;;;;9.35;6.55;;;29.30;98.40;;;;;;5060869;28;20037;-84
2021/09/09 12:16:40;;;;;;;9.05;7.55;;;29.50;98.20;;;;;;5059987;28;20146;-82
2021/09/09 12:19:06;;;;;;;8.88;7.25;;;29.30;96.50;;;;;;5066988;28;20143;-84
2021/09/09 12:21:33;;;;;;;8.93;6.60;;;29.60;98.20;;;;;;5058500;28;20044;-83
2021/09/09 12:24:07;;;;;;;10.25;7.00;;;29.90;99.10;;;;;;5058613;28;20387;-81
2021/09/09 12:26:38;;;;;;;12.40;7.30;;;30.20;98.00;;;;;;5053952;28;20048;-81
2021/09/09 12:29:17;;;;;;;10.52;6.75;;;30.20;97.20;;;;;;5039970;28;20032;-83
2021/09/09 12:31:43;;;;;;;9.55;7.03;;;30.20;95.40;;;;;;5058933;28;20048;-83